Airfield :
LOGIN :

Register | Disclaimer

   EN    FR    IT 

 










Legend :    VFR   Marginal VFR   IFR   Intensive IFR   Very Intensive IFR
Visi :
Ceiling :
>= 8 km
>= 3000ft
5 to 8 km
1000 to 3000 ft
1500m to 5 km
500 to 1000 ft
800 to 1500m
200 to 500 ft
< 800m
< 200 ft
Symbols :   Thunderstorms  Fog  Heavy snow  Heavy precipitations  Wind > 20 kt
SIGMETs :     Misc.  Thunderstorms  Icing  Turbulence  Mountain Waves  Volcanic Ashes







- Airport Elevation : 1260 ft
- IATA code : LDE
- Download approach charts


LFBT - Tarbes / Ossun

CURRENT METAR :
  • 200130Z AUTO 19006KT 9999 FEW029 09/07 Q1024 NOSIG

EXPIRED METARs :
  • 200100Z AUTO 21003KT 9999 OVC029 10/09 Q1024 NOSIG
  • 200030Z AUTO 21004KT 170V230 9999 OVC028 09/09 Q1025 NOSIG
  • 200000Z AUTO 19003KT 9999 BKN026 09/08 Q1025 NOSIG
  • 192330Z AUTO 21003KT 9999 BKN033 10/08 Q1025 NOSIG
  • 192300Z AUTO 19003KT 9999 BKN029 BKN035 11/09 Q1025 NOSIG

TAF TAF LFBT
Valid from the 20 at 00:00 until the 21 at 00:00 UTC


192300Z 2000/2024 VRB03KT 9999 SCT033
BECMG 2000/2002 CAVOK
BECMG 2009/2011 07008KT
No reported NOTAMs for that airfield.



MET'MAP, your aeronautical weather chart ! - Copyright ORBIFLY December 2007 - Disclaimer

ORBIFLY MET'MAP TEAM :

Programming & Development : Alexandra Zaïnal
Concept & Development : Baudouin d'Aumeries
Co-Development & Prog : Marc-Olivier Méhu
Technical & hardware support : Manuel Goepfert

Contact : metmap@orbifly.com




SOURCES & CREDITS :

   NOAA